Cabot Strait: Past 24 Hour Conditions

 

Îles de la Madeleine Airport

10:00 AM ADT 30 October 2014
This table is a summary of hourly weather conditions for the past 24 hours.
Date / Time
(ADT)
Wind(knots) Conditions Visibility(km) Pressure(kPa) Air tempC) Relative humidity(%) Dew pointC)
30 October 2014
10:00 W 15 gust 21 Partly Cloudy 32 100.6 11 87 8
9:00 WSW 15 Partly Cloudy 32 100.5 10 93 9
8:00 WSW 11 Mostly Cloudy 24 100.4 10 94 9
7:00 W 14 gust 21 Mostly Cloudy 24 100.3 10 95 9
6:00 W 15 Mostly Cloudy 19 100.3 11 97 10
5:00 WSW 13 gust 18 N/A N/A 100.2 12 99 12
4:00 SW 8 N/A N/A 100.2 12 99 12
3:00 SW 10 gust 18 N/A N/A 100.2 13 99 12
2:00 SW 11 N/A N/A 100.3 12 99 12
1:00 SW 10 gust 15 N/A N/A 100.3 12 99 12
0:00 SSW 11 gust 16 N/A N/A 100.4 12 99 12
29 October 2014
23:00 SSW 14 gust 21 Mostly Cloudy 13 100.5 12 96 12
22:00 S 15 gust 23 Light Drizzle 8 100.6 13 96 12
21:00 S 12 gust 25 Light Drizzle 13 100.6 12 93 11
20:00 S 15 gust 20 Light Drizzle 10 100.7 12 94 11
19:00 S 13 gust 24 Cloudy 24 100.8 12 89 10
18:00 SSE 13 gust 24 Cloudy 24 100.9 11 88 9
17:00 S 16 gust 22 Cloudy 24 101.0 11 88 9
16:00 S 12 gust 20 Light Rainshower 24 101.1 10 89 9
15:00 S 13 gust 23 Mostly Cloudy 24 101.2 10 87 8
14:00 S 15 gust 24 Mostly Cloudy 32 101.3 10 87 8
13:00 S 17 gust 26 Mostly Cloudy 32 101.4 9 87 7
12:00 S 18 Mostly Cloudy 32 101.5 9 87 7
11:00 SSE 12 gust 18 Mostly Cloudy 32 101.6 8 87 6
10:00 S 11 gust 19 Mostly Cloudy 32 101.7 8 85 6
 
Map of Atlantic - Newfoundland marine weather areas Southwestern Grand Banks - 44138 Banquereau - 44139 Tail of the Bank - 44140 Nickerson Bank - 44251 Northeast Burgeo Bank - 44255 Blanc-Sablon Airport Cap Whittle Chevery Natashquan Airport Heath Point Miscou Island Grand Étang Ingonish Beach North Mountain St.Paul Island J.A. Douglas McCurdy Sydney Airport Charlottetown Airport East Point North Cape Argentia Bonavista Burgeo Cape Race Corner Brook Daniel's Harbour Englee Ferolle Point La Scie Port aux Basques Rocky Harbour Sagona Island St. Anthony Airport St. John's Int'l Airport St. Lawrence Stephenville Airport Twillingate Winterland Wreckhouse Cartwright Airport Mary's Harbour Grates Cove Pool's Island Marticot Island Long Pond Îles de la Madeleine Airport
Legend: buoyBuoy land stationLand Station